Time;durP1;ratioP1;P1;durP2;ratioP2;P2;SDS_P1;SDS_P2;PMS_P1;PMS_P2;Temp;Humidity;BMP_temperature;BMP_pressure;BME280_temperature;BME280_humidity;BME280_pressure;Samples;Min_cycle;Max_cycle;Signal;HPM_P1;HPM_P2
2023/01/30 00:01:44;;;;;;;24.50;10.85;;;;;;;;;;4991102;28;20076;-62
2023/01/30 00:04:11;;;;;;;22.40;11.57;;;;;;;;;;4998244;28;20033;-62
2023/01/30 00:06:40;;;;;;;26.33;11.45;;;;;;;;;;4987930;28;20422;-62
2023/01/30 00:09:06;;;;;;;26.25;11.20;;;;;;;;;;4987413;28;20121;-62
2023/01/30 00:11:32;;;;;;;27.55;10.88;;;;;;;;;;4984077;28;20505;-62
2023/01/30 00:13:58;;;;;;;28.15;11.77;;;;;;;;;;4991238;28;20042;-62
2023/01/30 00:16:24;;;;;;;26.75;12.63;;;;;;;;;;4991588;28;20053;-62
2023/01/30 00:18:50;;;;;;;27.88;12.75;;;;;;;;;;4987115;28;20033;-62
2023/01/30 00:21:16;;;;;;;26.25;11.80;;;;;;;;;;4988619;28;20018;-62
2023/01/30 00:23:42;;;;;;;25.88;11.85;;;;;;;;;;4988878;28;20542;-62
2023/01/30 00:26:08;;;;;;;26.60;12.10;;;;;;;;;;4984263;28;20030;-62
2023/01/30 00:28:33;;;;;;;25.42;10.93;;;;;;;;;;4994804;28;20085;-62
2023/01/30 00:30:59;;;;;;;29.15;12.02;;;;;;;;;;4984508;28;20109;-62
2023/01/30 00:33:25;;;;;;;25.85;11.57;;;;;;;;;;4988990;28;20036;-62
2023/01/30 00:35:53;;;;;;;24.08;12.05;;;;;;;;;;4989616;28;20040;-62
2023/01/30 00:38:19;;;;;;;26.58;11.85;;;;;;;;;;4990064;28;20109;-63
2023/01/30 00:40:46;;;;;;;26.77;11.60;;;;;;;;;;4993410;28;20113;-62
2023/01/30 00:48:42;;;;;;;18.65;9.43;;;;;;;;;;5000159;28;20419;-61
2023/01/30 00:51:08;;;;;;;23.90;10.48;;;;;;;;;;5001792;28;20026;-62
2023/01/30 00:53:33;;;;;;;23.85;10.38;;;;;;;;;;4997012;28;20030;-62
2023/01/30 00:55:59;;;;;;;24.63;10.43;;;;;;;;;;4989896;28;20042;-62
2023/01/30 00:58:24;;;;;;;25.38;10.88;;;;;;;;;;4989469;28;20029;-62
2023/01/30 01:00:51;;;;;;;23.95;10.48;;;;;;;;;;4997087;28;20034;-62
2023/01/30 01:03:17;;;;;;;22.90;9.65;;;;;;;;;;4993586;28;20038;-62
2023/01/30 01:05:42;;;;;;;21.95;9.18;;;;;;;;;;4989869;28;20026;-62
2023/01/30 01:08:08;;;;;;;26.38;11.13;;;;;;;;;;4984334;28;20019;-62
2023/01/30 01:10:33;;;;;;;24.25;10.85;;;;;;;;;;5003651;28;20495;-62
2023/01/30 01:12:58;;;;;;;23.95;9.77;;;;;;;;;;4995104;28;20585;-62
2023/01/30 01:15:25;;;;;;;24.63;9.85;;;;;;;;;;4991378;28;20117;-62
2023/01/30 01:17:51;;;;;;;33.05;15.18;;;;;;;;;;4989157;28;20042;-62
2023/01/30 01:20:18;;;;;;;28.45;13.07;;;;;;;;;;4987907;28;20391;-62
2023/01/30 01:22:44;;;;;;;21.42;9.70;;;;;;;;;;4992586;28;20049;-62
2023/01/30 01:25:10;;;;;;;22.73;9.30;;;;;;;;;;4987985;28;20631;-62
2023/01/30 01:27:36;;;;;;;17.45;8.45;;;;;;;;;;4993263;28;20022;-61
2023/01/30 01:30:03;;;;;;;21.58;8.45;;;;;;;;;;4994482;28;20034;-62
2023/01/30 01:32:28;;;;;;;20.50;8.77;;;;;;;;;;4993391;28;20038;-62
2023/01/30 01:34:54;;;;;;;22.13;9.57;;;;;;;;;;4992820;28;20022;-62
2023/01/30 01:37:19;;;;;;;18.98;8.60;;;;;;;;;;4992190;28;20494;-62
2023/01/30 01:42:33;;;;;;;21.52;9.52;;;;;;;;;;5004351;28;20040;-62
2023/01/30 01:45:13;;;;;;;20.50;8.77;;;;;;;;;;4992902;28;20038;-62
2023/01/30 01:47:42;;;;;;;19.50;9.38;;;;;;;;;;4993770;28;20026;-62
2023/01/30 01:50:36;;;;;;;21.33;9.75;;;;;;;;;;4993662;28;20072;-62
2023/01/30 01:53:02;;;;;;;23.02;9.20;;;;;;;;;;4989638;28;20396;-62
2023/01/30 01:55:29;;;;;;;24.08;9.38;;;;;;;;;;4989502;28;20030;-61
2023/01/30 01:58:01;;;;;;;21.60;9.07;;;;;;;;;;4997377;28;20026;-62
2023/01/30 02:00:26;;;;;;;19.35;9.30;;;;;;;;;;4997386;28;20507;-61
2023/01/30 02:02:57;;;;;;;24.77;10.50;;;;;;;;;;4994028;28;20038;-61
2023/01/30 02:05:29;;;;;;;19.85;10.50;;;;;;;;;;4987979;28;20057;-63
2023/01/30 02:08:03;;;;;;;23.38;10.55;;;;;;;;;;4994385;28;20033;-62
2023/01/30 02:10:51;;;;;;;20.85;10.48;;;;;;;;;;4992585;28;20025;-62
2023/01/30 02:13:17;;;;;;;24.90;10.07;;;;;;;;;;4990999;28;20026;-62
2023/01/30 02:15:42;;;;;;;25.60;11.65;;;;;;;;;;4990709;28;20077;-62
2023/01/30 02:18:08;;;;;;;28.15;11.05;;;;;;;;;;4988301;28;20054;-62
2023/01/30 02:20:48;;;;;;;22.27;10.05;;;;;;;;;;4991410;28;20052;-62
2023/01/30 02:23:50;;;;;;;23.20;11.02;;;;;;;;;;4993992;28;20085;-62
2023/01/30 02:26:53;;;;;;;21.92;10.95;;;;;;;;;;4992812;28;20041;-62
2023/01/30 02:29:56;;;;;;;25.73;10.75;;;;;;;;;;4993068;28;20141;-62
2023/01/30 02:32:54;;;;;;;21.08;9.65;;;;;;;;;;4990335;28;20029;-62
2023/01/30 02:35:36;;;;;;;22.48;9.60;;;;;;;;;;4994722;28;20069;-62
2023/01/30 02:38:27;;;;;;;18.73;8.77;;;;;;;;;;4990553;28;20093;-62
2023/01/30 02:41:11;;;;;;;19.75;9.50;;;;;;;;;;4984781;28;20585;-62
2023/01/30 02:44:04;;;;;;;22.70;9.82;;;;;;;;;;4989117;28;20018;-62
2023/01/30 02:46:37;;;;;;;23.55;10.68;;;;;;;;;;4993986;28;20045;-62
2023/01/30 02:49:27;;;;;;;20.63;9.88;;;;;;;;;;5003044;28;20029;-62
2023/01/30 02:51:55;;;;;;;25.85;10.00;;;;;;;;;;4989124;28;20026;-62
2023/01/30 02:54:20;;;;;;;24.25;10.55;;;;;;;;;;4993847;28;20041;-62
2023/01/30 02:56:56;;;;;;;24.65;10.63;;;;;;;;;;4986018;28;20038;-62
2023/01/30 02:59:38;;;;;;;24.45;10.82;;;;;;;;;;4989896;28;20034;-61
2023/01/30 03:02:06;;;;;;;24.95;10.82;;;;;;;;;;4992832;28;20026;-61
2023/01/30 03:04:56;;;;;;;21.08;9.65;;;;;;;;;;4991568;28;20159;-62
2023/01/30 03:07:58;;;;;;;19.48;10.23;;;;;;;;;;4991384;28;20491;-62
2023/01/30 03:10:45;;;;;;;19.98;9.65;;;;;;;;;;4990832;28;20511;-62
2023/01/30 03:13:18;;;;;;;25.10;9.77;;;;;;;;;;4988008;28;20496;-62
2023/01/30 03:15:46;;;;;;;23.88;10.48;;;;;;;;;;4990851;28;20388;-62
2023/01/30 03:18:12;;;;;;;17.88;9.25;;;;;;;;;;4984850;28;20034;-62
2023/01/30 03:20:40;;;;;;;19.90;9.73;;;;;;;;;;4990130;28;20038;-62
2023/01/30 03:23:06;;;;;;;22.65;10.32;;;;;;;;;;4988650;28;20395;-62
2023/01/30 03:25:34;;;;;;;23.38;10.23;;;;;;;;;;4994750;28;20105;-62
2023/01/30 03:28:01;;;;;;;21.40;10.13;;;;;;;;;;4993518;28;20060;-62
2023/01/30 03:30:27;;;;;;;21.95;10.73;;;;;;;;;;4990275;28;20096;-62
2023/01/30 03:32:52;;;;;;;19.48;9.38;;;;;;;;;;4990589;28;20435;-62
2023/01/30 03:35:17;;;;;;;25.05;10.60;;;;;;;;;;4989247;28;20052;-62
2023/01/30 03:37:44;;;;;;;23.08;9.73;;;;;;;;;;4991630;28;20030;-62
2023/01/30 03:40:12;;;;;;;20.67;10.00;;;;;;;;;;4992410;28;20038;-62
2023/01/30 03:42:37;;;;;;;19.98;9.80;;;;;;;;;;4993163;28;20036;-62
2023/01/30 03:45:03;;;;;;;23.13;10.63;;;;;;;;;;4991080;28;20384;-62
2023/01/30 03:47:28;;;;;;;23.65;10.65;;;;;;;;;;4987222;28;20571;-62
2023/01/30 03:49:53;;;;;;;21.95;9.70;;;;;;;;;;4995032;28;20029;-62
2023/01/30 03:52:19;;;;;;;22.50;9.32;;;;;;;;;;4992595;28;20038;-62
2023/01/30 03:54:44;;;;;;;21.27;9.57;;;;;;;;;;4990144;28;20026;-62
2023/01/30 03:57:10;;;;;;;22.63;9.45;;;;;;;;;;4982608;28;20066;-60
2023/01/30 03:59:35;;;;;;;19.88;9.45;;;;;;;;;;4988703;28;20440;-60
2023/01/30 04:02:00;;;;;;;20.50;9.23;;;;;;;;;;4989112;28;20034;-60
2023/01/30 04:04:26;;;;;;;18.75;9.48;;;;;;;;;;4986011;28;20484;-60
2023/01/30 04:06:51;;;;;;;21.45;9.43;;;;;;;;;;4991784;28;20014;-61
2023/01/30 04:09:16;;;;;;;22.38;9.73;;;;;;;;;;4991238;28;20045;-60
2023/01/30 04:11:42;;;;;;;19.70;9.43;;;;;;;;;;4989988;28;20030;-61
2023/01/30 04:14:07;;;;;;;25.10;9.68;;;;;;;;;;4988716;28;20029;-60
2023/01/30 04:16:33;;;;;;;20.25;9.73;;;;;;;;;;4987345;28;20022;-61
2023/01/30 04:18:58;;;;;;;20.08;9.30;;;;;;;;;;4999585;28;20023;-61
2023/01/30 04:21:23;;;;;;;20.73;9.93;;;;;;;;;;4989343;28;20030;-61
2023/01/30 04:23:49;;;;;;;22.42;9.45;;;;;;;;;;4993898;28;20029;-61
2023/01/30 04:26:14;;;;;;;25.50;10.27;;;;;;;;;;4989829;28;20026;-61
2023/01/30 04:28:40;;;;;;;20.42;10.23;;;;;;;;;;4988870;28;20109;-61
2023/01/30 04:31:05;;;;;;;20.02;10.05;;;;;;;;;;4993831;28;20026;-61
2023/01/30 04:33:34;;;;;;;20.75;9.75;;;;;;;;;;4994152;28;20029;-60
2023/01/30 04:36:02;;;;;;;25.85;10.10;;;;;;;;;;4988450;28;20450;-61
2023/01/30 04:38:29;;;;;;;23.70;10.13;;;;;;;;;;4989088;28;20101;-61
2023/01/30 04:40:55;;;;;;;24.67;10.75;;;;;;;;;;4991809;28;20026;-60
2023/01/30 04:43:23;;;;;;;23.42;10.63;;;;;;;;;;4997174;28;20080;-61
2023/01/30 04:45:49;;;;;;;20.50;9.48;;;;;;;;;;4988499;28;20042;-61
2023/01/30 04:48:16;;;;;;;25.58;10.10;;;;;;;;;;4990701;28;20113;-61
2023/01/30 04:50:43;;;;;;;22.08;9.30;;;;;;;;;;4988544;28;20031;-61
2023/01/30 04:53:09;;;;;;;19.65;9.68;;;;;;;;;;4984683;28;20066;-61
2023/01/30 04:55:35;;;;;;;19.67;9.63;;;;;;;;;;4989669;28;20053;-60
2023/01/30 04:58:01;;;;;;;22.15;10.35;;;;;;;;;;4986927;28;20035;-61
2023/01/30 05:00:27;;;;;;;22.92;10.88;;;;;;;;;;4989401;28;20022;-60
2023/01/30 05:02:54;;;;;;;20.25;9.05;;;;;;;;;;4997989;28;20026;-60
2023/01/30 05:05:23;;;;;;;19.67;8.55;;;;;;;;;;4994904;28;20108;-61
2023/01/30 05:07:48;;;;;;;18.25;9.10;;;;;;;;;;4988692;28;20029;-60
2023/01/30 05:10:14;;;;;;;22.35;10.82;;;;;;;;;;4991785;28;20027;-60
2023/01/30 05:12:40;;;;;;;22.80;10.13;;;;;;;;;;4993037;28;20034;-60
2023/01/30 05:15:06;;;;;;;20.38;9.15;;;;;;;;;;4988405;28;20026;-61
2023/01/30 05:17:32;;;;;;;20.25;9.80;;;;;;;;;;4982857;28;20035;-60
2023/01/30 05:19:58;;;;;;;20.13;9.02;;;;;;;;;;4982946;28;20558;-60
2023/01/30 05:22:23;;;;;;;19.67;8.95;;;;;;;;;;4994180;28;20110;-60
2023/01/30 05:24:48;;;;;;;17.70;9.30;;;;;;;;;;4990879;28;20038;-61
2023/01/30 05:27:14;;;;;;;19.20;9.35;;;;;;;;;;4990582;28;20027;-61
2023/01/30 05:29:40;;;;;;;16.52;8.50;;;;;;;;;;4990404;28;20129;-61
2023/01/30 05:32:05;;;;;;;18.25;9.43;;;;;;;;;;4994845;28;20729;-61
2023/01/30 05:34:30;;;;;;;22.90;9.00;;;;;;;;;;5006296;28;20387;-61
2023/01/30 05:36:56;;;;;;;17.20;9.20;;;;;;;;;;4995088;28;20077;-61
2023/01/30 05:39:21;;;;;;;23.83;9.95;;;;;;;;;;4992498;28;20029;-61
2023/01/30 05:41:47;;;;;;;18.13;9.02;;;;;;;;;;4990374;28;20026;-61
2023/01/30 05:44:12;;;;;;;19.80;8.90;;;;;;;;;;5000878;28;20088;-62
2023/01/30 05:46:37;;;;;;;23.15;9.98;;;;;;;;;;4993047;28;20064;-61
2023/01/30 05:49:03;;;;;;;18.48;9.07;;;;;;;;;;4983251;28;20120;-61
2023/01/30 05:51:29;;;;;;;18.98;8.63;;;;;;;;;;4994618;28;20050;-61
2023/01/30 05:53:54;;;;;;;15.90;8.32;;;;;;;;;;4996325;28;20050;-61
2023/01/30 05:56:20;;;;;;;15.45;7.90;;;;;;;;;;4994776;28;20041;-61
2023/01/30 05:58:54;;;;;;;15.68;7.65;;;;;;;;;;4997647;28;20027;-62
2023/01/30 06:01:20;;;;;;;16.35;8.00;;;;;;;;;;4993155;28;20037;-62
2023/01/30 06:03:45;;;;;;;16.92;7.78;;;;;;;;;;4996122;28;20088;-61
2023/01/30 06:06:11;;;;;;;13.68;7.22;;;;;;;;;;4997414;28;20443;-61
2023/01/30 06:08:37;;;;;;;15.88;7.43;;;;;;;;;;4995699;28;20022;-62
2023/01/30 06:11:09;;;;;;;15.07;7.30;;;;;;;;;;4991646;28;20085;-62
2023/01/30 06:13:35;;;;;;;14.60;6.78;;;;;;;;;;4987098;28;20038;-62
2023/01/30 06:16:00;;;;;;;14.20;5.43;;;;;;;;;;4987237;28;20443;-62
2023/01/30 06:18:26;;;;;;;14.27;7.10;;;;;;;;;;4986269;28;20038;-61
2023/01/30 06:20:52;;;;;;;11.60;5.80;;;;;;;;;;4986593;28;20396;-62
2023/01/30 06:23:19;;;;;;;14.85;6.60;;;;;;;;;;4993537;28;20022;-61
2023/01/30 06:25:46;;;;;;;12.52;6.50;;;;;;;;;;4991538;28;20033;-62
2023/01/30 06:28:12;;;;;;;10.68;6.43;;;;;;;;;;4994793;28;20544;-61
2023/01/30 06:30:38;;;;;;;11.15;5.82;;;;;;;;;;4989020;28;20121;-62
2023/01/30 06:33:03;;;;;;;12.52;6.45;;;;;;;;;;4989135;28;20554;-62
2023/01/30 06:35:28;;;;;;;13.45;6.55;;;;;;;;;;4989877;28;20052;-63
2023/01/30 06:37:54;;;;;;;11.68;6.10;;;;;;;;;;4989057;28;20034;-62
2023/01/30 06:40:19;;;;;;;9.85;5.18;;;;;;;;;;4994572;28;20041;-62
2023/01/30 06:42:46;;;;;;;9.98;5.60;;;;;;;;;;4996161;28;20022;-62
2023/01/30 06:45:12;;;;;;;9.82;5.35;;;;;;;;;;4996389;28;20530;-63
2023/01/30 06:48:07;;;;;;;11.23;5.95;;;;;;;;;;4989530;28;20029;-62
2023/01/30 06:50:32;;;;;;;8.95;4.85;;;;;;;;;;4985150;28;20042;-62
2023/01/30 06:53:01;;;;;;;10.48;5.70;;;;;;;;;;4991762;28;20397;-62
2023/01/30 06:55:27;;;;;;;7.10;4.07;;;;;;;;;;4992601;28;20033;-62
2023/01/30 06:58:10;;;;;;;9.32;4.80;;;;;;;;;;4991644;28;20109;-62
2023/01/30 07:00:41;;;;;;;7.80;4.20;;;;;;;;;;4992337;28;20503;-61
2023/01/30 07:03:15;;;;;;;6.13;3.75;;;;;;;;;;4992071;28;20022;-62
2023/01/30 07:05:42;;;;;;;6.78;4.00;;;;;;;;;;4991079;28;20040;-62
2023/01/30 07:08:07;;;;;;;10.65;4.30;;;;;;;;;;4990187;28;20018;-62
2023/01/30 07:10:34;;;;;;;7.85;4.25;;;;;;;;;;4991392;28;20158;-62
2023/01/30 07:13:00;;;;;;;6.40;3.83;;;;;;;;;;4988623;28;20030;-62
2023/01/30 07:15:25;;;;;;;6.50;3.80;;;;;;;;;;4990310;28;20488;-62
2023/01/30 07:17:51;;;;;;;7.43;4.45;;;;;;;;;;4984512;28;20048;-62
2023/01/30 07:20:16;;;;;;;7.43;4.15;;;;;;;;;;4991697;28;20080;-62
2023/01/30 07:22:47;;;;;;;7.88;4.65;;;;;;;;;;4995510;28;20026;-62
2023/01/30 07:25:12;;;;;;;6.15;3.85;;;;;;;;;;4995187;28;20022;-62
2023/01/30 07:27:40;;;;;;;4.28;3.45;;;;;;;;;;4993442;28;20031;-61
2023/01/30 07:30:06;;;;;;;6.45;3.60;;;;;;;;;;4990189;28;20112;-61
2023/01/30 07:32:31;;;;;;;5.65;3.58;;;;;;;;;;4993639;28;20575;-61
2023/01/30 07:34:56;;;;;;;5.57;3.85;;;;;;;;;;4988736;28;20038;-61
2023/01/30 07:37:23;;;;;;;5.88;3.85;;;;;;;;;;4985628;28;20109;-61
2023/01/30 07:39:48;;;;;;;6.03;3.50;;;;;;;;;;4990972;28;20480;-61
2023/01/30 07:42:13;;;;;;;6.07;3.92;;;;;;;;;;4988193;28;20069;-61
2023/01/30 07:44:39;;;;;;;7.38;3.90;;;;;;;;;;4987059;28;20057;-61
2023/01/30 07:47:04;;;;;;;8.82;4.57;;;;;;;;;;4986208;28;20075;-61
2023/01/30 07:49:29;;;;;;;6.10;3.47;;;;;;;;;;4990493;28;20574;-62
2023/01/30 07:51:55;;;;;;;7.07;4.05;;;;;;;;;;4990852;28;20025;-62
2023/01/30 07:54:20;;;;;;;8.00;4.25;;;;;;;;;;4986374;28;20038;-62
2023/01/30 07:56:46;;;;;;;8.05;4.30;;;;;;;;;;4990590;28;20026;-62
2023/01/30 07:59:11;;;;;;;7.38;3.80;;;;;;;;;;4989132;28;20416;-61
2023/01/30 08:01:38;;;;;;;8.50;4.38;;;;;;;;;;4991699;28;20034;-62
2023/01/30 08:04:03;;;;;;;8.45;4.38;;;;;;;;;;4984337;28;20038;-63
2023/01/30 08:06:28;;;;;;;6.85;3.80;;;;;;;;;;4983423;28;20026;-61
2023/01/30 08:08:54;;;;;;;7.75;4.30;;;;;;;;;;4986972;28;20446;-62
2023/01/30 08:11:19;;;;;;;7.47;4.22;;;;;;;;;;4988137;28;20030;-63
2023/01/30 08:13:46;;;;;;;9.35;4.60;;;;;;;;;;4988706;28;20077;-62
2023/01/30 08:16:11;;;;;;;9.02;4.72;;;;;;;;;;4987338;28;20030;-62
2023/01/30 08:18:37;;;;;;;8.82;4.82;;;;;;;;;;4994113;28;20022;-62
2023/01/30 08:21:05;;;;;;;10.20;5.35;;;;;;;;;;4990290;28;20026;-63
2023/01/30 08:23:31;;;;;;;8.48;4.70;;;;;;;;;;4989574;28;20022;-63
2023/01/30 08:25:59;;;;;;;6.95;4.30;;;;;;;;;;4988367;28;20036;-62
2023/01/30 08:28:24;;;;;;;5.40;3.80;;;;;;;;;;4987871;28;20037;-62
2023/01/30 08:30:52;;;;;;;9.15;4.32;;;;;;;;;;4985316;28;20022;-62
2023/01/30 08:33:18;;;;;;;8.00;4.75;;;;;;;;;;4987896;28;20042;-62
2023/01/30 08:35:43;;;;;;;7.82;3.85;;;;;;;;;;4988494;28;20039;-62
2023/01/30 08:38:08;;;;;;;6.30;3.67;;;;;;;;;;4988889;28;20030;-62
2023/01/30 08:40:35;;;;;;;8.38;4.30;;;;;;;;;;4990144;28;20030;-63
2023/01/30 08:43:00;;;;;;;4.72;3.50;;;;;;;;;;4991356;28;20419;-62
2023/01/30 08:45:26;;;;;;;7.93;3.92;;;;;;;;;;4990480;28;20030;-62
2023/01/30 08:47:51;;;;;;;8.40;3.90;;;;;;;;;;4993233;28;20525;-62
2023/01/30 08:50:17;;;;;;;8.18;4.47;;;;;;;;;;4987397;28;20034;-63
2023/01/30 08:52:42;;;;;;;5.80;3.65;;;;;;;;;;4985771;28;20399;-63
2023/01/30 08:55:08;;;;;;;7.40;4.00;;;;;;;;;;4988625;28;20031;-62
2023/01/30 08:57:34;;;;;;;6.95;3.75;;;;;;;;;;4997826;28;20088;-63
2023/01/30 08:59:59;;;;;;;6.80;3.75;;;;;;;;;;4983679;28;20027;-62
2023/01/30 09:02:25;;;;;;;6.45;4.38;;;;;;;;;;4986234;28;20038;-62
2023/01/30 09:04:50;;;;;;;7.57;4.05;;;;;;;;;;4990395;28;20147;-63
2023/01/30 09:07:15;;;;;;;9.65;4.13;;;;;;;;;;4994279;28;20026;-63
2023/01/30 09:09:41;;;;;;;6.15;3.75;;;;;;;;;;4990709;28;20057;-63
2023/01/30 09:12:06;;;;;;;7.93;4.43;;;;;;;;;;4992004;28;20026;-63
2023/01/30 09:14:32;;;;;;;7.00;4.35;;;;;;;;;;4991428;28;20022;-62
2023/01/30 09:16:57;;;;;;;7.65;4.32;;;;;;;;;;4988454;28;20038;-64
2023/01/30 09:19:24;;;;;;;9.90;4.30;;;;;;;;;;4999040;28;20096;-63
2023/01/30 09:21:51;;;;;;;6.90;4.40;;;;;;;;;;4998164;28;20026;-63
2023/01/30 09:24:17;;;;;;;8.10;4.22;;;;;;;;;;4995703;28;20573;-63
2023/01/30 09:26:44;;;;;;;6.93;4.47;;;;;;;;;;4991871;28;20084;-63
2023/01/30 09:29:13;;;;;;;6.55;4.07;;;;;;;;;;4996158;28;20030;-63
2023/01/30 09:31:39;;;;;;;7.63;4.30;;;;;;;;;;4990390;28;20111;-63
2023/01/30 09:34:05;;;;;;;8.95;4.75;;;;;;;;;;4989295;28;20069;-62
2023/01/30 09:36:31;;;;;;;7.60;3.92;;;;;;;;;;4993447;28;20483;-62
2023/01/30 09:38:56;;;;;;;7.30;4.30;;;;;;;;;;4992412;28;20049;-63
2023/01/30 09:41:49;;;;;;;9.15;4.50;;;;;;;;;;4992084;28;20033;-63
2023/01/30 09:45:19;;;;;;;8.30;4.53;;;;;;;;;;4991513;28;20044;-62
2023/01/30 09:48:08;;;;;;;7.88;4.20;;;;;;;;;;4955928;28;20041;-61
2023/01/30 09:50:51;;;;;;;6.07;3.78;;;;;;;;;;4997013;28;20514;-61
2023/01/30 09:53:35;;;;;;;10.73;4.32;;;;;;;;;;4987062;28;20583;-62
2023/01/30 09:56:00;;;;;;;7.13;4.05;;;;;;;;;;4984769;28;20522;-61
2023/01/30 09:58:46;;;;;;;6.55;4.03;;;;;;;;;;4988397;28;20117;-61
2023/01/30 10:01:19;;;;;;;11.45;4.63;;;;;;;;;;4988860;28;20042;-61
2023/01/30 10:04:00;;;;;;;6.80;4.15;;;;;;;;;;4993290;28;20025;-62
2023/01/30 10:06:26;;;;;;;9.45;5.43;;;;;;;;;;4987506;28;20046;-61
2023/01/30 10:09:05;;;;;;;6.70;4.40;;;;;;;;;;4984824;28;20058;-61
2023/01/30 10:11:51;;;;;;;8.40;4.57;;;;;;;;;;4994297;28;20034;-60
2023/01/30 10:14:48;;;;;;;8.95;4.32;;;;;;;;;;4992805;28;20074;-61
2023/01/30 10:17:25;;;;;;;8.93;4.22;;;;;;;;;;4990511;28;20118;-59
2023/01/30 10:20:21;;;;;;;9.23;4.72;;;;;;;;;;4992841;28;20029;-60
2023/01/30 10:22:52;;;;;;;8.10;4.30;;;;;;;;;;4991729;28;20027;-59
2023/01/30 10:25:28;;;;;;;6.18;3.97;;;;;;;;;;4995583;28;20042;-59
2023/01/30 10:28:03;;;;;;;10.07;4.20;;;;;;;;;;4991825;28;20038;-59
2023/01/30 10:30:29;;;;;;;7.95;4.15;;;;;;;;;;4995460;28;20032;-59
2023/01/30 10:33:01;;;;;;;7.93;4.45;;;;;;;;;;4991736;28;20023;-59
2023/01/30 10:35:40;;;;;;;11.27;4.85;;;;;;;;;;4989458;28;20030;-59
2023/01/30 10:38:18;;;;;;;9.35;4.07;;;;;;;;;;4990246;28;20022;-59
2023/01/30 10:41:11;;;;;;;9.38;4.63;;;;;;;;;;4993847;28;20026;-59
2023/01/30 10:43:42;;;;;;;8.38;4.53;;;;;;;;;;4998900;28;20101;-59
2023/01/30 10:46:16;;;;;;;8.50;4.63;;;;;;;;;;4989081;28;20577;-59
2023/01/30 10:48:51;;;;;;;9.60;4.68;;;;;;;;;;4993479;28;20689;-59
2023/01/30 10:51:43;;;;;;;11.90;4.90;;;;;;;;;;4998725;28;20022;-60
2023/01/30 10:54:24;;;;;;;9.60;5.13;;;;;;;;;;4990160;28;20019;-59
2023/01/30 10:57:13;;;;;;;12.07;5.32;;;;;;;;;;4994799;28;20088;-60
2023/01/30 11:00:06;;;;;;;9.88;5.15;;;;;;;;;;4991322;28;20072;-60
2023/01/30 11:02:46;;;;;;;10.70;4.78;;;;;;;;;;4992855;28;20066;-60
2023/01/30 11:05:20;;;;;;;11.98;5.50;;;;;;;;;;4992195;28;20068;-60
2023/01/30 11:07:47;;;;;;;8.68;4.40;;;;;;;;;;4985950;28;20377;-60
2023/01/30 11:10:20;;;;;;;12.52;4.55;;;;;;;;;;4989751;28;20054;-60
2023/01/30 11:12:45;;;;;;;8.23;4.35;;;;;;;;;;4986402;28;20030;-61
2023/01/30 11:15:11;;;;;;;7.32;4.00;;;;;;;;;;4991240;28;20122;-61
2023/01/30 11:17:44;;;;;;;9.05;4.85;;;;;;;;;;4990807;28;20080;-60
2023/01/30 11:20:14;;;;;;;8.95;4.72;;;;;;;;;;4990385;28;20038;-60
2023/01/30 11:23:19;;;;;;;10.48;4.35;;;;;;;;;;4989893;28;20496;-60
2023/01/30 11:25:50;;;;;;;11.20;4.80;;;;;;;;;;4991066;28;20065;-60
2023/01/30 11:28:18;;;;;;;10.85;5.07;;;;;;;;;;4990685;28;20296;-61
2023/01/30 11:30:53;;;;;;;9.07;4.70;;;;;;;;;;4990059;28;20400;-61
2023/01/30 11:33:21;;;;;;;6.88;4.45;;;;;;;;;;4985450;28;20097;-60
2023/01/30 11:35:57;;;;;;;7.50;4.18;;;;;;;;;;4989993;28;20492;-61
2023/01/30 11:38:28;;;;;;;10.98;4.35;;;;;;;;;;4984061;28;20050;-61
2023/01/30 11:41:09;;;;;;;7.07;4.10;;;;;;;;;;4988415;28;20096;-60
2023/01/30 11:43:40;;;;;;;9.07;4.25;;;;;;;;;;4991320;28;20113;-61
2023/01/30 11:46:12;;;;;;;8.43;4.38;;;;;;;;;;4991049;28;20022;-60
2023/01/30 11:48:59;;;;;;;9.05;4.20;;;;;;;;;;4988276;28;20117;-61
2023/01/30 11:51:25;;;;;;;9.50;4.63;;;;;;;;;;4986158;28;20027;-61
2023/01/30 11:53:57;;;;;;;7.82;3.83;;;;;;;;;;4988518;28;20030;-62
2023/01/30 11:56:37;;;;;;;9.93;4.80;;;;;;;;;;4988881;28;20034;-61
2023/01/30 11:59:21;;;;;;;8.15;4.45;;;;;;;;;;4990593;28;20034;-62
2023/01/30 12:01:47;;;;;;;9.68;4.40;;;;;;;;;;4991532;28;20087;-62
2023/01/30 12:04:13;;;;;;;10.68;4.82;;;;;;;;;;4992362;28;20109;-62
2023/01/30 12:06:41;;;;;;;8.00;4.60;;;;;;;;;;4987400;28;20030;-62
2023/01/30 12:09:26;;;;;;;7.15;4.28;;;;;;;;;;4987852;28;20033;-62
2023/01/30 12:11:52;;;;;;;7.65;3.85;;;;;;;;;;4984497;28;20026;-62
2023/01/30 12:14:36;;;;;;;8.93;4.10;;;;;;;;;;4987625;28;20672;-62
2023/01/30 12:17:09;;;;;;;8.30;3.40;;;;;;;;;;4977818;28;20045;-60
2023/01/30 12:19:49;;;;;;;7.97;3.05;;;;;;;;;;4989566;28;20507;-60
2023/01/30 12:22:21;;;;;;;4.78;3.08;;;;;;;;;;4996786;28;20491;-60
2023/01/30 12:25:02;;;;;;;6.45;3.95;;;;;;;;;;4992579;28;20116;-61
2023/01/30 12:27:47;;;;;;;6.32;3.25;;;;;;;;;;4993420;28;20026;-61
2023/01/30 12:30:21;;;;;;;4.95;3.75;;;;;;;;;;4994273;28;20030;-61
2023/01/30 12:32:47;;;;;;;4.75;2.88;;;;;;;;;;4994077;28;20060;-61
2023/01/30 12:35:16;;;;;;;7.22;2.80;;;;;;;;;;4986297;28;20504;-61
2023/01/30 12:38:08;;;;;;;6.38;3.72;;;;;;;;;;4986408;28;20041;-61
2023/01/30 12:40:59;;;;;;;7.05;3.80;;;;;;;;;;4996382;28;20043;-61
2023/01/30 12:43:34;;;;;;;6.88;3.28;;;;;;;;;;4993038;28;20034;-62
2023/01/30 12:46:23;;;;;;;6.60;3.80;;;;;;;;;;4993954;28;20045;-61
2023/01/30 12:49:18;;;;;;;8.52;4.60;;;;;;;;;;4999383;28;20141;-61
2023/01/30 12:52:02;;;;;;;7.32;3.88;;;;;;;;;;5000285;28;20053;-61
2023/01/30 12:54:43;;;;;;;9.27;4.50;;;;;;;;;;5000092;28;20045;-61
2023/01/30 12:57:21;;;;;;;7.47;4.07;;;;;;;;;;4998293;28;20065;-61
2023/01/30 13:00:05;;;;;;;9.57;4.03;;;;;;;;;;4990067;28;20546;-62
2023/01/30 13:02:31;;;;;;;6.72;3.83;;;;;;;;;;4998246;28;20087;-61
2023/01/30 13:05:28;;;;;;;11.20;4.72;;;;;;;;;;4999073;28;20034;-62
2023/01/30 13:08:12;;;;;;;6.80;3.67;;;;;;;;;;4987342;28;20041;-62
2023/01/30 13:10:56;;;;;;;10.20;5.85;;;;;;;;;;4993963;28;20070;-62
2023/01/30 13:13:25;;;;;;;10.52;5.13;;;;;;;;;;4993867;28;20018;-61
2023/01/30 13:16:00;;;;;;;8.38;4.20;;;;;;;;;;4997734;28;20026;-61
2023/01/30 13:18:38;;;;;;;34.75;6.53;;;;;;;;;;4997402;28;20026;-62
2023/01/30 13:21:18;;;;;;;9.57;5.10;;;;;;;;;;4995859;28;20026;-61
2023/01/30 13:24:02;;;;;;;12.90;4.90;;;;;;;;;;4996328;28;20018;-62
2023/01/30 13:26:33;;;;;;;8.57;4.40;;;;;;;;;;4990524;28;20045;-62
2023/01/30 13:29:03;;;;;;;10.88;4.93;;;;;;;;;;4993023;28;20542;-62
2023/01/30 13:31:31;;;;;;;;;;;;;;;;;;4995150;28;20369;-61
2023/01/30 13:34:19;;;;;;;12.48;5.75;;;;;;;;;;4994585;28;19918;-61
2023/01/30 13:36:58;;;;;;;12.57;5.72;;;;;;;;;;5002354;28;20022;-61
2023/01/30 13:39:41;;;;;;;12.75;5.68;;;;;;;;;;4994125;28;20031;-62
2023/01/30 13:42:20;;;;;;;9.82;4.47;;;;;;;;;;4995600;28;20044;-62
2023/01/30 13:44:47;;;;;;;13.13;6.32;;;;;;;;;;5003459;28;20105;-62
2023/01/30 13:47:26;;;;;;;14.80;5.97;;;;;;;;;;4998309;28;20026;-62
2023/01/30 13:49:59;;;;;;;16.27;6.28;;;;;;;;;;4996957;28;20030;-62
2023/01/30 13:52:46;;;;;;;12.30;4.90;;;;;;;;;;4989103;28;20022;-62
2023/01/30 13:55:29;;;;;;;9.52;5.40;;;;;;;;;;4995144;28;20514;-62
2023/01/30 13:57:59;;;;;;;10.23;5.30;;;;;;;;;;4988875;28;20030;-62
2023/01/30 14:00:32;;;;;;;12.48;6.05;;;;;;;;;;4993012;28;20036;-62
2023/01/30 14:03:06;;;;;;;13.10;5.80;;;;;;;;;;4994369;28;20093;-63
2023/01/30 14:05:59;;;;;;;15.98;6.70;;;;;;;;;;4988665;28;20124;-62
2023/01/30 14:08:28;;;;;;;14.23;5.47;;;;;;;;;;4994218;28;20042;-62
2023/01/30 14:10:56;;;;;;;13.87;5.57;;;;;;;;;;5001833;28;20117;-62
2023/01/30 14:13:24;;;;;;;14.55;6.30;;;;;;;;;;4992252;28;20281;-62
2023/01/30 14:15:56;;;;;;;9.52;4.88;;;;;;;;;;4990150;28;20025;-62
2023/01/30 14:18:26;;;;;;;16.38;6.00;;;;;;;;;;4992115;28;20046;-62
2023/01/30 14:21:10;;;;;;;11.77;5.93;;;;;;;;;;4992928;28;20031;-62
2023/01/30 14:23:36;;;;;;;13.20;5.50;;;;;;;;;;4992627;28;20492;-62
2023/01/30 14:26:02;;;;;;;12.55;5.38;;;;;;;;;;4989760;28;20113;-62
2023/01/30 14:28:30;;;;;;;8.85;4.32;;;;;;;;;;4989674;28;20377;-62
2023/01/30 14:31:00;;;;;;;14.85;6.15;;;;;;;;;;4996974;28;20022;-61
2023/01/30 14:33:25;;;;;;;13.20;6.05;;;;;;;;;;4990971;28;20109;-62
2023/01/30 14:36:00;;;;;;;10.02;5.20;;;;;;;;;;4989517;28;20105;-63
2023/01/30 14:38:30;;;;;;;13.95;5.38;;;;;;;;;;4988122;28;20026;-61
2023/01/30 14:41:01;;;;;;;13.75;5.78;;;;;;;;;;4991607;28;20018;-63
2023/01/30 14:43:41;;;;;;;12.52;5.50;;;;;;;;;;4988500;28;20472;-63
2023/01/30 14:46:15;;;;;;;13.27;6.45;;;;;;;;;;4987374;28;20512;-61
2023/01/30 14:48:52;;;;;;;11.85;5.60;;;;;;;;;;4992490;28;20400;-61
2023/01/30 14:51:39;;;;;;;18.65;7.50;;;;;;;;;;4991361;28;20034;-62
2023/01/30 14:54:13;;;;;;;13.38;5.88;;;;;;;;;;4990419;28;20025;-61
2023/01/30 14:57:01;;;;;;;13.25;5.63;;;;;;;;;;4997533;28;20117;-62
2023/01/30 14:59:33;;;;;;;16.92;6.05;;;;;;;;;;4987953;28;20062;-61
2023/01/30 15:02:08;;;;;;;17.55;6.63;;;;;;;;;;4990578;28;20073;-61
2023/01/30 15:05:04;;;;;;;16.52;6.80;;;;;;;;;;4996216;28;20032;-62
2023/01/30 15:07:29;;;;;;;14.77;6.35;;;;;;;;;;4991456;28;20031;-62